Time;durP1;ratioP1;P1;durP2;ratioP2;P2;SDS_P1;SDS_P2;PMS_P1;PMS_P2;Temp;Humidity;BMP_temperature;BMP_pressure;BME280_temperature;BME280_humidity;BME280_pressure;Samples;Min_cycle;Max_cycle;Signal;HPM_P1;HPM_P2
2024/04/15 00:01:20;;;;;;;2.70;1.10;;;;;;;;;;5637381;25;20327;-47
2024/04/15 00:03:47;;;;;;;6.13;1.92;;;;;;;;;;5666667;25;20702;-48
2024/04/15 00:06:16;;;;;;;2.85;2.03;;;;;;;;;;5638925;25;20639;-48
2024/04/15 00:08:42;;;;;;;3.55;1.70;;;;;;;;;;5649469;25;20559;-50
2024/04/15 00:11:11;;;;;;;2.97;1.50;;;;;;;;;;5659330;25;20228;-48
2024/04/15 00:13:38;;;;;;;2.80;1.90;;;;;;;;;;5675611;25;20211;-49
2024/04/15 00:16:10;;;;;;;4.88;1.98;;;;;;;;;;5641193;25;20288;-50
2024/04/15 00:18:37;;;;;;;2.25;1.73;;;;;;;;;;5636829;25;20213;-51
2024/04/15 00:21:10;;;;;;;1.83;1.50;;;;;;;;;;5652446;25;20312;-52
2024/04/15 00:23:37;;;;;;;3.03;1.90;;;;;;;;;;5638890;25;20256;-48
2024/04/15 00:26:06;;;;;;;3.00;1.60;;;;;;;;;;5658366;25;20244;-48
2024/04/15 00:28:33;;;;;;;3.15;1.70;;;;;;;;;;5669388;25;20263;-50
2024/04/15 00:31:02;;;;;;;3.42;1.42;;;;;;;;;;5657210;25;20290;-49
2024/04/15 00:33:31;;;;;;;2.30;1.58;;;;;;;;;;5670231;25;20861;-48
2024/04/15 00:36:00;;;;;;;2.47;1.50;;;;;;;;;;5640073;25;20658;-48
2024/04/15 00:38:27;;;;;;;1.67;1.58;;;;;;;;;;5648406;25;20208;-48
2024/04/15 00:40:56;;;;;;;3.97;2.20;;;;;;;;;;5647539;25;20248;-50
2024/04/15 00:43:22;;;;;;;5.10;2.45;;;;;;;;;;5640094;25;20696;-49
2024/04/15 00:45:51;;;;;;;1.73;1.60;;;;;;;;;;5670630;25;20857;-50
2024/04/15 00:48:18;;;;;;;2.53;1.75;;;;;;;;;;5678920;25;20212;-48
2024/04/15 00:50:51;;;;;;;2.17;1.50;;;;;;;;;;5679215;25;20653;-50
2024/04/15 00:53:19;;;;;;;2.85;2.25;;;;;;;;;;5646278;25;20236;-47
2024/04/15 00:55:51;;;;;;;3.00;1.90;;;;;;;;;;5678903;25;20211;-49
2024/04/15 00:58:20;;;;;;;2.58;1.63;;;;;;;;;;5662735;25;20224;-47
2024/04/15 01:00:50;;;;;;;2.42;1.70;;;;;;;;;;5649096;25;20315;-47
2024/04/15 01:03:16;;;;;;;1.55;1.40;;;;;;;;;;5639678;25;20264;-47
2024/04/15 01:05:49;;;;;;;1.63;1.40;;;;;;;;;;5652509;25;20220;-47
2024/04/15 01:08:16;;;;;;;2.38;1.92;;;;;;;;;;5673594;25;20228;-47
2024/04/15 01:10:45;;;;;;;2.83;1.60;;;;;;;;;;5640071;25;20217;-48
2024/04/15 01:13:11;;;;;;;1.92;1.58;;;;;;;;;;5655458;25;20225;-50
2024/04/15 01:15:41;;;;;;;1.65;1.50;;;;;;;;;;5650839;25;20228;-47
2024/04/15 01:18:07;;;;;;;12.18;2.20;;;;;;;;;;5646328;25;20243;-47
2024/04/15 01:20:36;;;;;;;1.48;1.38;;;;;;;;;;5678468;25;20219;-48
2024/04/15 01:23:10;;;;;;;1.92;1.63;;;;;;;;;;5678320;25;20730;-48
2024/04/15 01:25:42;;;;;;;4.32;3.05;;;;;;;;;;5651531;25;20267;-47
2024/04/15 01:28:10;;;;;;;5.20;1.50;;;;;;;;;;5655790;25;20686;-48
2024/04/15 01:30:39;;;;;;;2.00;1.80;;;;;;;;;;5655650;25;20221;-48
2024/04/15 01:33:06;;;;;;;2.70;1.83;;;;;;;;;;5641754;25;20233;-51
2024/04/15 01:35:35;;;;;;;1.77;1.33;;;;;;;;;;5678279;25;20219;-48
2024/04/15 01:38:02;;;;;;;1.30;1.20;;;;;;;;;;5660768;25;21029;-47
2024/04/15 01:40:31;;;;;;;1.33;1.20;;;;;;;;;;5639131;25;20221;-48
2024/04/15 01:43:00;;;;;;;1.80;1.65;;;;;;;;;;5639028;25;20229;-51
2024/04/15 01:45:29;;;;;;;3.90;1.40;;;;;;;;;;5647178;25;20635;-49
2024/04/15 01:47:56;;;;;;;4.90;1.75;;;;;;;;;;5662005;25;20563;-47
2024/04/15 01:50:25;;;;;;;1.60;1.50;;;;;;;;;;5655232;25;20224;-48
2024/04/15 01:52:51;;;;;;;2.03;1.48;;;;;;;;;;5669709;25;20224;-47
2024/04/15 01:55:21;;;;;;;1.75;1.48;;;;;;;;;;5671998;25;20209;-48
2024/04/15 01:57:47;;;;;;;1.75;1.38;;;;;;;;;;5652588;25;20216;-48
2024/04/15 02:00:19;;;;;;;1.95;1.38;;;;;;;;;;5677821;25;20791;-47
2024/04/15 02:02:45;;;;;;;1.88;1.70;;;;;;;;;;5664507;25;20232;-48
2024/04/15 02:05:14;;;;;;;3.10;1.85;;;;;;;;;;5654833;25;20208;-49
2024/04/15 02:07:41;;;;;;;1.90;1.50;;;;;;;;;;5654921;25;20221;-48
2024/04/15 02:10:11;;;;;;;1.73;1.55;;;;;;;;;;5654849;25;20333;-47
2024/04/15 02:12:37;;;;;;;1.70;1.60;;;;;;;;;;5665688;25;20258;-47
2024/04/15 02:15:07;;;;;;;2.90;2.60;;;;;;;;;;5661520;25;20295;-47
2024/04/15 02:17:36;;;;;;;1.52;1.42;;;;;;;;;;5661531;25;20263;-48
2024/04/15 02:20:05;;;;;;;1.75;1.42;;;;;;;;;;5659937;25;20221;-49
2024/04/15 02:22:32;;;;;;;1.77;1.55;;;;;;;;;;5664376;25;20220;-48
2024/04/15 02:25:02;;;;;;;3.60;1.73;;;;;;;;;;5677482;25;20291;-50
2024/04/15 02:27:34;;;;;;;3.10;1.48;;;;;;;;;;5661544;25;20752;-48
2024/04/15 02:30:03;;;;;;;1.63;1.30;;;;;;;;;;5644235;25;20221;-50
2024/04/15 02:32:29;;;;;;;1.38;1.27;;;;;;;;;;5663669;25;20289;-48
2024/04/15 02:35:01;;;;;;;1.30;1.20;;;;;;;;;;5661140;25;20723;-47
2024/04/15 02:37:28;;;;;;;1.30;1.20;;;;;;;;;;5638503;25;20299;-47
2024/04/15 02:39:57;;;;;;;2.25;1.40;;;;;;;;;;5654554;25;20267;-47
2024/04/15 02:42:23;;;;;;;1.40;1.30;;;;;;;;;;5638298;25;20221;-47
2024/04/15 02:44:52;;;;;;;1.25;1.15;;;;;;;;;;5653642;25;20229;-48
2024/04/15 02:47:19;;;;;;;1.40;1.30;;;;;;;;;;5659934;25;20262;-48
2024/04/15 02:49:48;;;;;;;1.30;1.20;;;;;;;;;;5661182;25;20275;-48
2024/04/15 02:52:17;;;;;;;1.10;1.10;;;;;;;;;;5656084;25;20236;-47
2024/04/15 02:54:46;;;;;;;1.35;1.00;;;;;;;;;;5638350;25;20269;-47
2024/04/15 02:57:12;;;;;;;0.70;0.70;;;;;;;;;;5654209;25;20798;-48
2024/04/15 02:59:42;;;;;;;1.17;1.10;;;;;;;;;;5638034;25;20771;-49
2024/04/15 03:02:08;;;;;;;1.10;0.95;;;;;;;;;;5656832;25;20225;-49
2024/04/15 03:04:37;;;;;;;1.52;0.95;;;;;;;;;;5650528;25;20259;-49
2024/04/15 03:07:04;;;;;;;0.70;0.70;;;;;;;;;;5670321;25;20220;-48
2024/04/15 03:09:36;;;;;;;0.80;0.80;;;;;;;;;;5650742;25;20225;-49
2024/04/15 03:12:03;;;;;;;1.23;1.13;;;;;;;;;;5655118;25;20225;-52
2024/04/15 03:14:33;;;;;;;1.00;1.00;;;;;;;;;;5667555;25;20236;-47
2024/04/15 03:17:01;;;;;;;1.20;1.10;;;;;;;;;;5649281;25;20754;-48
2024/04/15 03:19:30;;;;;;;1.08;0.95;;;;;;;;;;5643699;25;20293;-48
2024/04/15 03:21:56;;;;;;;1.17;1.00;;;;;;;;;;5665316;25;20266;-47
2024/04/15 03:24:27;;;;;;;0.90;0.90;;;;;;;;;;5636960;25;20221;-50
2024/04/15 03:26:59;;;;;;;0.85;0.85;;;;;;;;;;5653462;25;20254;-48
2024/04/15 03:29:28;;;;;;;0.85;0.85;;;;;;;;;;5637470;25;20337;-51
2024/04/15 03:31:54;;;;;;;1.13;1.00;;;;;;;;;;5648898;25;20271;-47
2024/04/15 03:34:23;;;;;;;0.90;0.90;;;;;;;;;;5636832;25;20250;-47
2024/04/15 03:36:52;;;;;;;1.45;1.35;;;;;;;;;;5637210;25;20225;-49
2024/04/15 03:39:21;;;;;;;0.90;0.90;;;;;;;;;;5643067;25;20263;-47
2024/04/15 03:41:51;;;;;;;1.48;1.38;;;;;;;;;;5642861;25;20768;-48
2024/04/15 03:44:21;;;;;;;6.13;1.42;;;;;;;;;;5636819;25;20574;-48
2024/04/15 03:46:51;;;;;;;1.85;0.90;;;;;;;;;;5642868;25;20264;-47
2024/04/15 03:49:17;;;;;;;1.30;1.20;;;;;;;;;;5636779;25;20267;-51
2024/04/15 03:51:46;;;;;;;0.90;0.90;;;;;;;;;;5644654;25;20309;-50
2024/04/15 03:54:14;;;;;;;0.90;0.90;;;;;;;;;;5665655;25;20262;-51
2024/04/15 03:56:43;;;;;;;0.95;0.90;;;;;;;;;;5648175;25;20566;-49
2024/04/15 03:59:09;;;;;;;0.90;0.90;;;;;;;;;;5667291;25;20277;-50
2024/04/15 04:01:41;;;;;;;1.08;1.00;;;;;;;;;;5645800;25;20221;-47
2024/04/15 04:04:07;;;;;;;1.00;1.00;;;;;;;;;;5659322;25;20721;-54
2024/04/15 04:06:37;;;;;;;0.85;0.85;;;;;;;;;;5663907;25;20221;-49
2024/04/15 04:09:03;;;;;;;1.00;1.00;;;;;;;;;;5662672;25;20215;-49
2024/04/15 04:11:32;;;;;;;0.88;0.88;;;;;;;;;;5651571;25;20229;-50
2024/04/15 04:13:59;;;;;;;1.08;1.08;;;;;;;;;;5651850;25;20220;-47
2024/04/15 04:16:28;;;;;;;0.93;0.93;;;;;;;;;;5663277;25;20809;-47
2024/04/15 04:18:57;;;;;;;1.10;1.10;;;;;;;;;;5647566;25;20268;-49
2024/04/15 04:21:26;;;;;;;1.30;1.20;;;;;;;;;;5639930;25;20224;-47
2024/04/15 04:23:53;;;;;;;1.33;1.25;;;;;;;;;;5644327;25;20248;-48
2024/04/15 04:26:22;;;;;;;1.13;1.13;;;;;;;;;;5662832;25;20219;-49
2024/04/15 04:28:48;;;;;;;0.90;0.90;;;;;;;;;;5648856;25;20724;-52
2024/04/15 04:31:18;;;;;;;0.90;0.90;;;;;;;;;;5651070;25;20621;-50
2024/04/15 04:33:45;;;;;;;1.02;1.02;;;;;;;;;;5640117;25;20259;-49
2024/04/15 04:36:20;;;;;;;1.33;1.10;;;;;;;;;;5640201;25;20259;-51
2024/04/15 04:38:46;;;;;;;1.48;1.38;;;;;;;;;;5639845;25;20228;-48
2024/04/15 04:41:15;;;;;;;1.60;1.50;;;;;;;;;;5641486;25;20229;-50
2024/04/15 04:43:42;;;;;;;1.58;1.48;;;;;;;;;;5639659;25;20255;-49
2024/04/15 04:46:11;;;;;;;1.55;1.45;;;;;;;;;;5659161;25;20227;-51
2024/04/15 04:48:38;;;;;;;1.35;1.30;;;;;;;;;;5651969;25;20209;-48
2024/04/15 04:51:08;;;;;;;1.70;1.60;;;;;;;;;;5674082;25;20675;-48
2024/04/15 04:53:38;;;;;;;1.58;1.45;;;;;;;;;;5662605;25;20219;-49
2024/04/15 04:56:12;;;;;;;1.90;1.60;;;;;;;;;;5660817;25;20296;-48
2024/04/15 04:58:39;;;;;;;1.90;1.80;;;;;;;;;;5667185;25;20251;-52
2024/04/15 05:01:13;;;;;;;1.52;1.15;;;;;;;;;;5644302;25;20307;-47
2024/04/15 05:03:41;;;;;;;2.00;1.58;;;;;;;;;;5639539;25;20217;-47
2024/04/15 05:06:11;;;;;;;1.73;1.30;;;;;;;;;;5658915;25;20335;-47
2024/04/15 05:08:40;;;;;;;2.30;2.10;;;;;;;;;;5678247;25;20289;-48
2024/04/15 05:11:10;;;;;;;1.70;1.60;;;;;;;;;;5659859;25;20272;-48
2024/04/15 05:13:37;;;;;;;2.03;1.92;;;;;;;;;;5655552;25;20221;-47
2024/04/15 05:16:07;;;;;;;1.63;1.52;;;;;;;;;;5639658;25;20217;-47
2024/04/15 05:18:36;;;;;;;1.80;1.70;;;;;;;;;;5665665;25;20606;-49
2024/04/15 05:21:06;;;;;;;2.08;1.63;;;;;;;;;;5661160;25;20209;-52
2024/04/15 05:23:33;;;;;;;2.35;1.92;;;;;;;;;;5664908;25;20258;-51
2024/04/15 05:26:05;;;;;;;2.40;1.40;;;;;;;;;;5646345;25;20284;-49
2024/04/15 05:28:31;;;;;;;1.85;1.75;;;;;;;;;;5678420;25;20208;-48
2024/04/15 05:31:00;;;;;;;1.88;1.77;;;;;;;;;;5678096;25;20695;-51
2024/04/15 05:33:27;;;;;;;1.20;1.20;;;;;;;;;;5678106;25;20243;-48
2024/04/15 05:35:56;;;;;;;1.58;1.48;;;;;;;;;;5662052;25;20265;-48
2024/04/15 05:38:23;;;;;;;1.35;1.25;;;;;;;;;;5639376;25;20553;-48
2024/04/15 05:40:52;;;;;;;1.83;1.60;;;;;;;;;;5669287;25;20615;-48
2024/04/15 05:43:21;;;;;;;2.90;1.38;;;;;;;;;;5661487;25;20228;-51
2024/04/15 05:45:50;;;;;;;1.52;1.42;;;;;;;;;;5664472;25;20225;-51
2024/04/15 05:48:17;;;;;;;1.70;1.60;;;;;;;;;;5644430;25;20209;-47
2024/04/15 05:50:47;;;;;;;2.67;2.45;;;;;;;;;;5678136;25;20211;-47
2024/04/15 05:53:13;;;;;;;1.95;1.60;;;;;;;;;;5641460;25;20225;-50
2024/04/15 05:55:44;;;;;;;1.80;1.70;;;;;;;;;;5650291;25;20224;-50
2024/04/15 05:58:10;;;;;;;1.50;1.40;;;;;;;;;;5658633;25;20215;-50
2024/04/15 06:00:42;;;;;;;1.75;1.65;;;;;;;;;;5665468;25;20275;-50
2024/04/15 06:03:09;;;;;;;3.13;2.35;;;;;;;;;;5658063;25;20260;-52
2024/04/15 06:05:38;;;;;;;4.22;1.83;;;;;;;;;;5649079;25;20211;-50
2024/04/15 06:08:06;;;;;;;1.50;1.40;;;;;;;;;;5675901;25;20211;-52
2024/04/15 06:10:35;;;;;;;2.15;1.98;;;;;;;;;;5654866;25;20235;-48
2024/04/15 06:13:01;;;;;;;1.88;1.77;;;;;;;;;;5655809;25;20941;-52
2024/04/15 06:15:36;;;;;;;2.00;1.80;;;;;;;;;;5661044;25;20296;-53
2024/04/15 06:18:06;;;;;;;1.30;1.30;;;;;;;;;;5677587;25;20233;-51
2024/04/15 06:20:35;;;;;;;2.00;1.70;;;;;;;;;;5659843;25;20271;-48
2024/04/15 06:23:02;;;;;;;1.80;1.70;;;;;;;;;;5644234;25;20228;-48
2024/04/15 06:25:31;;;;;;;1.60;1.50;;;;;;;;;;5662807;25;20224;-47
2024/04/15 06:27:58;;;;;;;1.95;1.40;;;;;;;;;;5661497;25;20266;-50
2024/04/15 06:30:27;;;;;;;2.65;1.40;;;;;;;;;;5645386;25;20266;-51
2024/04/15 06:32:53;;;;;;;3.63;2.30;;;;;;;;;;5645499;25;20565;-50
2024/04/15 06:35:25;;;;;;;1.50;1.40;;;;;;;;;;5675673;25;20710;-50
2024/04/15 06:37:52;;;;;;;2.47;1.95;;;;;;;;;;5676663;25;20224;-49
2024/04/15 06:40:21;;;;;;;2.30;2.10;;;;;;;;;;5660482;25;20266;-48
2024/04/15 06:42:48;;;;;;;2.20;2.00;;;;;;;;;;5660303;25;20228;-50
2024/04/15 06:45:17;;;;;;;2.88;2.05;;;;;;;;;;5656046;25;20327;-50
2024/04/15 06:47:43;;;;;;;1.42;1.33;;;;;;;;;;5650107;25;20200;-52
2024/04/15 06:50:12;;;;;;;2.63;2.03;;;;;;;;;;5676495;25;20799;-48
2024/04/15 06:52:42;;;;;;;3.03;1.92;;;;;;;;;;5665394;25;20220;-48
2024/04/15 06:55:11;;;;;;;2.40;2.10;;;;;;;;;;5637568;25;20209;-53
2024/04/15 06:57:37;;;;;;;2.15;1.95;;;;;;;;;;5638185;25;20213;-48
2024/04/15 07:00:07;;;;;;;1.95;1.85;;;;;;;;;;5637881;25;20307;-52
2024/04/15 07:02:34;;;;;;;2.33;2.03;;;;;;;;;;5663569;25;20648;-48
2024/04/15 07:05:03;;;;;;;1.73;1.63;;;;;;;;;;5676768;25;20220;-50
2024/04/15 07:07:30;;;;;;;2.10;2.00;;;;;;;;;;5652255;25;20268;-47
2024/04/15 07:10:04;;;;;;;2.30;2.10;;;;;;;;;;5637907;25;20245;-48
2024/04/15 07:12:30;;;;;;;3.53;2.88;;;;;;;;;;5638314;25;20271;-50
2024/04/15 07:14:59;;;;;;;3.85;2.70;;;;;;;;;;5669833;25;20228;-47
2024/04/15 07:17:26;;;;;;;2.75;2.40;;;;;;;;;;5669319;25;20259;-49
2024/04/15 07:19:55;;;;;;;3.03;2.72;;;;;;;;;;5637911;25;20600;-49
2024/04/15 07:22:22;;;;;;;2.55;2.35;;;;;;;;;;5637688;25;20221;-47
2024/04/15 07:24:52;;;;;;;4.03;2.42;;;;;;;;;;5667243;25;20216;-49
2024/04/15 07:27:21;;;;;;;3.10;2.28;;;;;;;;;;5660491;25;20620;-51
2024/04/15 07:29:51;;;;;;;1.90;1.80;;;;;;;;;;5662980;25;20225;-52
2024/04/15 07:32:17;;;;;;;3.63;2.80;;;;;;;;;;5652777;25;20217;-51
2024/04/15 07:34:47;;;;;;;3.30;2.63;;;;;;;;;;5649389;25;20367;-47
2024/04/15 07:37:14;;;;;;;3.25;2.50;;;;;;;;;;5639676;25;20225;-48
2024/04/15 07:39:43;;;;;;;3.42;2.70;;;;;;;;;;5636973;25;20251;-47
2024/04/15 07:42:10;;;;;;;2.53;2.15;;;;;;;;;;5637111;25;20221;-47
2024/04/15 07:44:42;;;;;;;2.45;2.25;;;;;;;;;;5637094;25;20220;-48
2024/04/15 07:47:08;;;;;;;2.97;2.53;;;;;;;;;;5639422;25;20221;-47
2024/04/15 07:49:38;;;;;;;3.90;2.78;;;;;;;;;;5675826;25;20246;-48
2024/04/15 07:52:05;;;;;;;2.20;2.10;;;;;;;;;;5642041;25;20271;-48
2024/04/15 07:54:35;;;;;;;4.07;3.10;;;;;;;;;;5636871;25;20605;-47
2024/04/15 07:57:02;;;;;;;3.78;3.28;;;;;;;;;;5669936;25;20220;-48
2024/04/15 07:59:32;;;;;;;3.00;2.45;;;;;;;;;;5667188;25;20765;-49
2024/04/15 08:02:02;;;;;;;2.67;2.47;;;;;;;;;;5636292;25;20224;-48
2024/04/15 08:04:31;;;;;;;2.25;2.13;;;;;;;;;;5660503;25;20219;-48
2024/04/15 08:06:58;;;;;;;2.78;2.53;;;;;;;;;;5675606;25;20252;-47
2024/04/15 08:09:27;;;;;;;2.67;2.45;;;;;;;;;;5668856;25;20255;-48
2024/04/15 08:11:53;;;;;;;3.70;3.00;;;;;;;;;;5651323;25;20278;-51
2024/04/15 08:14:23;;;;;;;2.40;2.20;;;;;;;;;;5637406;25;20285;-49
2024/04/15 08:16:50;;;;;;;3.65;2.53;;;;;;;;;;5636861;25;20217;-49
2024/04/15 08:19:21;;;;;;;4.65;2.90;;;;;;;;;;5636687;25;20205;-50
2024/04/15 08:21:48;;;;;;;5.35;2.80;;;;;;;;;;5649682;25;20255;-50
2024/04/15 08:24:17;;;;;;;2.15;2.05;;;;;;;;;;5670933;25;20287;-47
2024/04/15 08:26:44;;;;;;;3.28;2.72;;;;;;;;;;5648635;25;20207;-50
2024/04/15 08:29:14;;;;;;;2.58;2.38;;;;;;;;;;5672156;25;20246;-49
2024/04/15 08:31:40;;;;;;;2.85;2.65;;;;;;;;;;5636441;25;20217;-49
2024/04/15 08:34:09;;;;;;;2.55;2.35;;;;;;;;;;5654618;25;20302;-50
2024/04/15 08:36:38;;;;;;;2.22;2.00;;;;;;;;;;5649260;25;20213;-48
2024/04/15 08:39:08;;;;;;;3.40;2.15;;;;;;;;;;5670244;25;20616;-50
2024/04/15 08:41:47;;;;;;;1.90;1.80;;;;;;;;;;5675079;25;20251;-48
2024/04/15 08:44:21;;;;;;;2.35;2.00;;;;;;;;;;5660142;25;20266;-50
2024/04/15 08:46:49;;;;;;;1.98;1.88;;;;;;;;;;5665436;25;20229;-48
2024/04/15 08:49:19;;;;;;;2.22;2.03;;;;;;;;;;5639746;25;20220;-48
2024/04/15 08:51:48;;;;;;;1.90;1.75;;;;;;;;;;5639837;25;20272;-48
2024/04/15 08:54:17;;;;;;;3.85;2.45;;;;;;;;;;5639587;25;20212;-51
2024/04/15 08:56:44;;;;;;;2.70;1.75;;;;;;;;;;5639742;25;20209;-48
2024/04/15 08:59:18;;;;;;;3.38;1.92;;;;;;;;;;5674922;25;20326;-47
2024/04/15 09:01:45;;;;;;;2.25;2.15;;;;;;;;;;5650267;25;20304;-47
2024/04/15 09:04:14;;;;;;;2.40;2.15;;;;;;;;;;5655774;25;20228;-48
2024/04/15 09:06:40;;;;;;;3.65;2.40;;;;;;;;;;5667202;25;20270;-48
2024/04/15 09:09:13;;;;;;;2.55;2.28;;;;;;;;;;5644405;25;20372;-51
2024/04/15 09:11:40;;;;;;;2.00;1.90;;;;;;;;;;5639392;25;20216;-54
2024/04/15 09:14:09;;;;;;;3.50;2.33;;;;;;;;;;5639392;25;20267;-49
2024/04/15 09:16:35;;;;;;;2.72;2.47;;;;;;;;;;5665491;25;20224;-50
2024/04/15 09:19:08;;;;;;;2.53;1.88;;;;;;;;;;5645589;25;20264;-49
2024/04/15 09:21:36;;;;;;;1.55;1.45;;;;;;;;;;5639716;25;20229;-48
2024/04/15 09:24:05;;;;;;;1.60;1.50;;;;;;;;;;5639476;25;20220;-51
2024/04/15 09:26:34;;;;;;;2.45;1.83;;;;;;;;;;5639569;25;20260;-47
2024/04/15 09:29:05;;;;;;;2.67;1.80;;;;;;;;;;5672141;25;20223;-48
2024/04/15 09:31:32;;;;;;;1.88;1.67;;;;;;;;;;5678487;25;20262;-50
2024/04/15 09:34:02;;;;;;;1.92;1.58;;;;;;;;;;5646189;25;20221;-50
2024/04/15 09:36:30;;;;;;;2.72;1.67;;;;;;;;;;5639349;25;20209;-48
2024/04/15 09:39:00;;;;;;;1.15;1.08;;;;;;;;;;5670974;25;20655;-51
2024/04/15 09:41:27;;;;;;;2.92;2.40;;;;;;;;;;5646714;25;20274;-52
2024/04/15 09:43:59;;;;;;;2.63;2.15;;;;;;;;;;5678273;25;20312;-49
2024/04/15 09:46:29;;;;;;;1.38;1.23;;;;;;;;;;5654959;25;20221;-49
2024/04/15 09:48:58;;;;;;;1.92;1.73;;;;;;;;;;5639347;25;20546;-49
2024/04/15 09:51:26;;;;;;;1.52;1.42;;;;;;;;;;5639082;25;20271;-48
2024/04/15 09:53:56;;;;;;;1.60;1.40;;;;;;;;;;5669456;25;20284;-53
2024/04/15 09:56:27;;;;;;;5.80;1.60;;;;;;;;;;5677603;25;20215;-49
2024/04/15 09:59:01;;;;;;;1.95;1.25;;;;;;;;;;5663330;25;20327;-49
2024/04/15 10:01:31;;;;;;;1.10;1.10;;;;;;;;;;5638402;25;20224;-49
2024/04/15 10:04:04;;;;;;;1.35;1.25;;;;;;;;;;5654215;25;20219;-50
2024/04/15 10:06:35;;;;;;;6.70;1.98;;;;;;;;;;5677535;25;20238;-52
2024/04/15 10:09:04;;;;;;;3.30;1.23;;;;;;;;;;5677826;25;20250;-50
2024/04/15 10:11:31;;;;;;;2.85;1.42;;;;;;;;;;5677112;25;20263;-49
2024/04/15 10:14:03;;;;;;;3.35;1.50;;;;;;;;;;5677291;25;20243;-49
2024/04/15 10:16:30;;;;;;;3.40;1.30;;;;;;;;;;5638400;25;20688;-51
2024/04/15 10:19:02;;;;;;;4.05;1.75;;;;;;;;;;5637351;25;20201;-48
2024/04/15 10:21:29;;;;;;;2.58;1.42;;;;;;;;;;5638228;25;20735;-50
2024/04/15 10:23:59;;;;;;;1.88;1.17;;;;;;;;;;5637871;25;20260;-49
2024/04/15 10:26:27;;;;;;;2.47;1.45;;;;;;;;;;5638032;25;20264;-48
2024/04/15 10:29:18;;;;;;;1.95;1.42;;;;;;;;;;5638322;25;20255;-48
2024/04/15 10:31:58;;;;;;;1.20;1.15;;;;;;;;;;5638118;25;20896;-49
2024/04/15 10:34:30;;;;;;;1.92;1.60;;;;;;;;;;5637692;25;20263;-49
2024/04/15 10:36:59;;;;;;;2.10;1.50;;;;;;;;;;5638210;25;20209;-49
2024/04/15 10:39:27;;;;;;;2.10;1.30;;;;;;;;;;5638219;25;20324;-50
2024/04/15 10:41:57;;;;;;;2.30;1.50;;;;;;;;;;5655284;25;20230;-49
2024/04/15 10:44:26;;;;;;;2.53;1.33;;;;;;;;;;5637179;25;20213;-50
2024/04/15 10:46:55;;;;;;;1.30;1.20;;;;;;;;;;5667733;25;20707;-52
2024/04/15 10:49:21;;;;;;;2.50;1.30;;;;;;;;;;5661123;25;20267;-50
2024/04/15 10:51:50;;;;;;;2.97;1.65;;;;;;;;;;5647987;25;20323;-50
2024/04/15 10:54:17;;;;;;;10.57;2.90;;;;;;;;;;5638180;25;20247;-49
2024/04/15 10:56:46;;;;;;;2.03;1.77;;;;;;;;;;5638308;25;20277;-51
2024/04/15 10:59:15;;;;;;;2.03;1.15;;;;;;;;;;5657814;25;20219;-48
2024/04/15 11:01:49;;;;;;;1.70;1.15;;;;;;;;;;5676995;25;20277;-48
2024/04/15 11:04:15;;;;;;;1.58;1.48;;;;;;;;;;5676996;25;20211;-48
2024/04/15 11:06:44;;;;;;;1.20;1.10;;;;;;;;;;5675588;25;20276;-50
2024/04/15 11:09:11;;;;;;;2.28;1.20;;;;;;;;;;5676453;25;20557;-49
2024/04/15 11:11:40;;;;;;;1.73;1.48;;;;;;;;;;5676152;25;20224;-51
2024/04/15 11:14:10;;;;;;;2.05;1.30;;;;;;;;;;5676217;25;20839;-48
2024/04/15 11:16:47;;;;;;;1.10;1.00;;;;;;;;;;5676311;25;20208;-53
2024/04/15 11:19:15;;;;;;;1.92;1.55;;;;;;;;;;5643863;25;20263;-49
2024/04/15 11:21:44;;;;;;;1.30;1.20;;;;;;;;;;5676178;25;20236;-49
2024/04/15 11:24:10;;;;;;;2.00;1.20;;;;;;;;;;5676207;25;20593;-50
2024/04/15 11:26:40;;;;;;;1.05;0.95;;;;;;;;;;5676324;25;20216;-49
2024/04/15 11:29:09;;;;;;;2.28;1.67;;;;;;;;;;5676210;25;20687;-47
2024/04/15 11:31:41;;;;;;;3.00;1.67;;;;;;;;;;5675986;25;20228;-51
2024/04/15 11:34:10;;;;;;;1.77;0.90;;;;;;;;;;5675897;25;20208;-49
2024/04/15 11:36:40;;;;;;;1.23;1.08;;;;;;;;;;5675906;25;20275;-49
2024/04/15 11:39:07;;;;;;;1.33;1.10;;;;;;;;;;5675708;25;20258;-48
2024/04/15 11:41:36;;;;;;;1.67;1.10;;;;;;;;;;5676169;25;20240;-48
2024/04/15 11:44:02;;;;;;;2.67;1.85;;;;;;;;;;5676282;25;20212;-50
2024/04/15 11:46:32;;;;;;;2.35;1.40;;;;;;;;;;5676307;25;20201;-47
2024/04/15 11:49:01;;;;;;;3.50;1.08;;;;;;;;;;5676176;25;20548;-47
2024/04/15 11:51:30;;;;;;;2.83;1.33;;;;;;;;;;5675944;25;20278;-47
2024/04/15 11:53:59;;;;;;;2.33;0.90;;;;;;;;;;5676007;25;20246;-49
2024/04/15 11:56:26;;;;;;;1.35;0.95;;;;;;;;;;5676140;25;20243;-47
2024/04/15 11:58:55;;;;;;;1.30;1.20;;;;;;;;;;5676215;25;20583;-48
2024/04/15 12:01:22;;;;;;;2.63;1.00;;;;;;;;;;5675858;25;20255;-47
2024/04/15 12:03:51;;;;;;;2.03;1.27;;;;;;;;;;5675893;25;20521;-47
2024/04/15 12:06:19;;;;;;;1.42;1.00;;;;;;;;;;5676297;25;20733;-48
2024/04/15 12:08:51;;;;;;;1.63;1.02;;;;;;;;;;5663517;25;20715;-52
2024/04/15 12:11:19;;;;;;;4.03;1.20;;;;;;;;;;5673943;25;20223;-48
2024/04/15 12:13:48;;;;;;;1.85;1.42;;;;;;;;;;5675866;25;20204;-49
2024/04/15 12:16:15;;;;;;;2.33;1.45;;;;;;;;;;5675492;25;20246;-49
2024/04/15 12:18:44;;;;;;;3.17;1.75;;;;;;;;;;5676371;25;20207;-47
2024/04/15 12:21:11;;;;;;;1.02;0.80;;;;;;;;;;5659810;25;20672;-51
2024/04/15 12:23:40;;;;;;;1.00;0.90;;;;;;;;;;5649771;25;20275;-48
2024/04/15 12:26:09;;;;;;;1.98;1.00;;;;;;;;;;5660889;25;20606;-46
2024/04/15 12:28:38;;;;;;;0.80;0.70;;;;;;;;;;5665549;25;20309;-46
2024/04/15 12:31:04;;;;;;;1.10;1.00;;;;;;;;;;5679116;25;20216;-46
2024/04/15 12:33:34;;;;;;;1.67;1.15;;;;;;;;;;5678685;25;20646;-47
2024/04/15 12:36:00;;;;;;;1.75;1.00;;;;;;;;;;5679146;25;20220;-47
2024/04/15 12:38:29;;;;;;;1.13;1.02;;;;;;;;;;5679122;25;20254;-48
2024/04/15 12:40:56;;;;;;;1.50;0.90;;;;;;;;;;5679154;25;20220;-51
2024/04/15 12:43:28;;;;;;;1.17;0.88;;;;;;;;;;5678827;25;20331;-49
2024/04/15 12:45:54;;;;;;;1.45;1.10;;;;;;;;;;5679090;25;20215;-47
2024/04/15 12:48:23;;;;;;;1.38;1.00;;;;;;;;;;5662978;25;20270;-46
2024/04/15 12:50:53;;;;;;;2.03;0.98;;;;;;;;;;5662921;25;20220;-51
2024/04/15 12:53:22;;;;;;;3.00;1.20;;;;;;;;;;5662269;25;20716;-51
2024/04/15 12:55:48;;;;;;;1.38;0.93;;;;;;;;;;5662768;25;20264;-46
2024/04/15 12:58:18;;;;;;;0.70;0.70;;;;;;;;;;5678862;25;20236;-48
2024/04/15 13:00:47;;;;;;;1.20;1.13;;;;;;;;;;5678960;25;20236;-50
2024/04/15 13:03:16;;;;;;;2.70;0.85;;;;;;;;;;5678183;25;20267;-47
2024/04/15 13:05:43;;;;;;;0.47;0.47;;;;;;;;;;5678761;25;20263;-50
2024/04/15 13:08:12;;;;;;;3.03;0.82;;;;;;;;;;5679013;25;20325;-48
2024/04/15 13:10:38;;;;;;;0.85;0.65;;;;;;;;;;5668938;25;20221;-47
2024/04/15 13:13:08;;;;;;;0.65;0.52;;;;;;;;;;5656683;25;20291;-46
2024/04/15 13:15:34;;;;;;;3.92;1.35;;;;;;;;;;5678383;25;20220;-48
2024/04/15 13:18:07;;;;;;;2.47;0.93;;;;;;;;;;5678573;25;20224;-47
2024/04/15 13:20:33;;;;;;;1.23;0.93;;;;;;;;;;5662575;25;20251;-48
2024/04/15 13:23:04;;;;;;;1.20;0.82;;;;;;;;;;5678416;25;20274;-50
2024/04/15 13:25:31;;;;;;;1.42;0.90;;;;;;;;;;5662193;25;20220;-50
2024/04/15 13:28:00;;;;;;;2.38;1.20;;;;;;;;;;5678688;25;20265;-51
2024/04/15 13:30:26;;;;;;;1.10;0.75;;;;;;;;;;5677860;25;20714;-49
2024/04/15 13:32:56;;;;;;;0.95;0.63;;;;;;;;;;5678291;25;20269;-48
2024/04/15 13:35:25;;;;;;;1.42;1.33;;;;;;;;;;5662097;25;20283;-48
2024/04/15 13:37:54;;;;;;;0.85;0.80;;;;;;;;;;5678494;25;20220;-47
2024/04/15 13:40:20;;;;;;;0.80;0.80;;;;;;;;;;5661876;25;20298;-48
2024/04/15 13:42:49;;;;;;;1.67;0.90;;;;;;;;;;5678161;25;20227;-47
2024/04/15 13:45:16;;;;;;;2.08;1.00;;;;;;;;;;5678088;25;20219;-47
2024/04/15 13:47:45;;;;;;;2.78;1.10;;;;;;;;;;5678433;25;20596;-47
2024/04/15 13:50:12;;;;;;;2.08;1.42;;;;;;;;;;5678206;25;20223;-46
2024/04/15 13:52:43;;;;;;;0.88;0.88;;;;;;;;;;5677790;25;20224;-49
2024/04/15 13:55:10;;;;;;;1.63;1.00;;;;;;;;;;5661930;25;20223;-47
2024/04/15 13:57:40;;;;;;;1.48;1.00;;;;;;;;;;5678312;25;20314;-48
2024/04/15 14:00:08;;;;;;;1.95;1.67;;;;;;;;;;5678392;25;20266;-47
2024/04/15 14:02:38;;;;;;;0.80;0.80;;;;;;;;;;5677646;25;20329;-50
2024/04/15 14:05:05;;;;;;;1.25;0.80;;;;;;;;;;5677544;25;20262;-48
2024/04/15 14:07:34;;;;;;;1.45;1.00;;;;;;;;;;5677765;25;20224;-50
2024/04/15 14:10:06;;;;;;;1.52;0.65;;;;;;;;;;5677831;25;20262;-51
2024/04/15 14:12:35;;;;;;;1.77;0.93;;;;;;;;;;5677749;25;20967;-47
2024/04/15 14:15:02;;;;;;;0.88;0.70;;;;;;;;;;5677494;25;20262;-50
2024/04/15 14:17:31;;;;;;;1.58;0.80;;;;;;;;;;5677872;25;20258;-47
2024/04/15 14:19:58;;;;;;;0.80;0.80;;;;;;;;;;5677597;25;20270;-48
2024/04/15 14:22:30;;;;;;;1.05;0.88;;;;;;;;;;5677707;25;20266;-47
2024/04/15 14:24:56;;;;;;;1.95;0.80;;;;;;;;;;5677604;25;20231;-48
2024/04/15 14:27:29;;;;;;;1.40;0.70;;;;;;;;;;5677784;25;20601;-48
2024/04/15 14:29:56;;;;;;;3.20;1.02;;;;;;;;;;5677463;25;20698;-50
2024/04/15 14:32:25;;;;;;;0.68;0.68;;;;;;;;;;5677304;25;20683;-49
2024/04/15 14:34:51;;;;;;;0.93;0.85;;;;;;;;;;5677447;25;20250;-49
2024/04/15 14:37:20;;;;;;;3.67;1.10;;;;;;;;;;5645035;25;20293;-46
2024/04/15 14:39:48;;;;;;;3.17;1.10;;;;;;;;;;5677357;25;20232;-50
2024/04/15 14:42:17;;;;;;;1.58;0.70;;;;;;;;;;5643622;25;20225;-46
2024/04/15 14:44:46;;;;;;;0.88;0.80;;;;;;;;;;5676145;25;20224;-48
2024/04/15 14:47:15;;;;;;;1.25;0.70;;;;;;;;;;5676202;25;20220;-47
2024/04/15 14:49:42;;;;;;;0.98;0.70;;;;;;;;;;5677395;25;20224;-46
2024/04/15 14:52:16;;;;;;;0.65;0.65;;;;;;;;;;5677350;25;20601;-46